createdAt,value
2022-10-11T00:00:55.498Z,0.00
2022-10-11T00:01:55.427Z,0.00
2022-10-11T00:02:55.449Z,0.00
2022-10-11T00:03:55.448Z,0.00
2022-10-11T00:04:58.682Z,0.00
2022-10-11T00:05:55.407Z,0.00
2022-10-11T00:06:55.401Z,0.00
2022-10-11T00:07:55.414Z,0.00
2022-10-11T00:08:55.407Z,0.00
2022-10-11T00:09:58.397Z,0.00
2022-10-11T00:10:56.582Z,0.00
2022-10-11T00:11:55.577Z,0.00
2022-10-11T00:12:55.329Z,0.00
2022-10-11T00:13:55.310Z,0.00
2022-10-11T00:14:55.551Z,0.00
2022-10-11T00:15:55.309Z,0.00
2022-10-11T00:16:55.534Z,0.00
2022-10-11T00:18:05.411Z,0.00
2022-10-11T00:18:55.287Z,0.00
2022-10-11T00:19:55.259Z,0.00
2022-10-11T00:20:55.255Z,0.00
2022-10-11T00:21:55.495Z,0.00
2022-10-11T00:22:55.441Z,0.00
2022-10-11T00:23:56.265Z,0.00
2022-10-11T00:24:56.222Z,0.00
2022-10-11T00:25:55.195Z,0.00
2022-10-11T00:26:55.409Z,0.00
2022-10-11T00:27:56.185Z,0.00
2022-10-11T00:28:55.472Z,0.00
2022-10-11T00:29:58.205Z,0.00
2022-10-11T00:31:02.652Z,0.00
2022-10-11T00:31:55.393Z,0.00
2022-10-11T00:32:55.141Z,0.00
2022-10-11T00:33:55.153Z,0.00
2022-10-11T00:34:56.115Z,0.00
2022-10-11T00:35:56.352Z,0.00
2022-10-11T00:36:55.346Z,0.00
2022-10-11T00:37:55.315Z,0.00
2022-10-11T00:38:55.051Z,0.00
2022-10-11T00:39:55.300Z,0.00
2022-10-11T00:41:02.336Z,0.00
2022-10-11T00:41:55.044Z,0.00
2022-10-11T00:42:55.045Z,0.00
2022-10-11T00:44:02.063Z,0.00
2022-10-11T00:44:55.002Z,0.00
2022-10-11T00:45:55.004Z,0.00
2022-10-11T00:46:55.992Z,0.00
2022-10-11T00:47:54.978Z,0.00
2022-10-11T00:49:02.082Z,0.00
2022-10-11T00:49:55.207Z,0.00
2022-10-11T00:50:58.013Z,0.00
2022-10-11T00:51:54.936Z,0.00
2022-10-11T00:53:02.442Z,0.00
2022-10-11T00:53:55.164Z,0.00
2022-10-11T00:54:54.902Z,0.00
2022-10-11T00:55:54.885Z,0.00
2022-10-11T00:56:55.118Z,0.00
2022-10-11T00:57:57.897Z,0.00
2022-10-11T00:58:54.884Z,0.00
2022-10-11T00:59:55.879Z,0.00
2022-10-11T01:01:02.263Z,0.00
2022-10-11T01:01:55.088Z,0.00
2022-10-11T01:02:55.051Z,0.00
2022-10-11T01:03:55.857Z,0.00
2022-10-11T01:05:18.021Z,0.00
2022-10-11T01:06:03.262Z,0.00
2022-10-11T01:06:54.777Z,0.00
2022-10-11T01:07:54.758Z,0.00
2022-10-11T01:08:54.966Z,0.00
2022-10-11T01:09:55.019Z,0.00
2022-10-11T01:10:54.714Z,0.00
2022-10-11T01:11:54.745Z,0.00
2022-10-11T01:12:54.704Z,0.00
2022-10-11T01:14:01.975Z,0.00
2022-10-11T01:14:54.688Z,0.00
2022-10-11T01:15:57.723Z,0.00
2022-10-11T01:16:54.710Z,0.00
2022-10-11T01:17:54.908Z,0.00
2022-10-11T01:18:54.638Z,0.00
2022-10-11T01:20:01.913Z,0.00
2022-10-11T01:20:54.855Z,0.00
2022-10-11T01:21:54.640Z,0.00
2022-10-11T01:22:54.856Z,0.00
2022-10-11T01:23:57.641Z,0.00
2022-10-11T01:24:54.580Z,0.00
2022-10-11T01:25:54.812Z,0.00
2022-10-11T01:26:54.594Z,0.00
2022-10-11T01:27:57.820Z,0.00
2022-10-11T01:28:54.837Z,0.00
2022-10-11T01:29:54.546Z,0.00
2022-10-11T01:30:55.763Z,0.00
2022-10-11T01:31:57.530Z,0.00
2022-10-11T01:32:54.531Z,0.00
2022-10-11T01:33:54.731Z,0.00
2022-10-11T01:34:55.743Z,0.00
2022-10-11T01:35:54.704Z,0.00
2022-10-11T01:36:54.451Z,0.00
2022-10-11T01:37:55.489Z,0.00
2022-10-11T01:38:54.470Z,0.00
2022-10-11T01:39:57.477Z,0.00
2022-10-11T01:40:54.670Z,0.00
2022-10-11T01:41:54.412Z,0.00
2022-10-11T01:42:54.423Z,0.00
2022-10-11T01:43:54.409Z,0.00
2022-10-11T01:44:54.631Z,0.00
2022-10-11T01:45:54.606Z,0.00
2022-10-11T01:46:54.372Z,0.00
2022-10-11T01:48:01.495Z,0.00
2022-10-11T01:48:54.352Z,0.00
2022-10-11T01:50:01.800Z,0.00
2022-10-11T01:50:54.323Z,0.00
2022-10-11T01:51:54.554Z,0.00
2022-10-11T01:52:54.336Z,0.00
2022-10-11T01:53:54.273Z,0.00
2022-10-11T01:55:09.265Z,0.00
2022-10-11T01:55:55.271Z,0.00
2022-10-11T01:56:57.287Z,0.00
2022-10-11T01:57:54.244Z,0.00
2022-10-11T01:58:54.474Z,0.00
2022-10-11T01:59:54.253Z,0.00
2022-10-11T02:01:01.564Z,0.00
2022-10-11T02:01:55.560Z,0.00
2022-10-11T02:02:54.428Z,0.00
2022-10-11T02:03:54.445Z,0.00
2022-10-11T02:04:54.209Z,0.00
2022-10-11T02:05:55.393Z,0.00
2022-10-11T02:06:54.386Z,0.00
2022-10-11T02:08:01.357Z,0.00
2022-10-11T02:08:57.187Z,0.00
2022-10-11T02:09:54.362Z,0.00
2022-10-11T02:10:54.364Z,0.00
2022-10-11T02:11:54.112Z,0.00
2022-10-11T02:12:54.085Z,0.00
2022-10-11T02:13:54.337Z,0.00
2022-10-11T02:14:54.323Z,0.00
2022-10-11T02:15:57.125Z,0.00
2022-10-11T02:16:54.070Z,0.00
2022-10-11T02:17:54.043Z,0.00
2022-10-11T02:18:54.284Z,0.00
2022-10-11T02:19:55.295Z,0.00
2022-10-11T02:20:54.015Z,0.00
2022-10-11T02:21:54.017Z,0.00
2022-10-11T02:22:54.997Z,0.00
2022-10-11T02:23:54.236Z,0.00
2022-10-11T02:24:53.966Z,0.00
2022-10-11T02:25:53.962Z,0.00
2022-10-11T02:26:53.958Z,0.00
2022-10-11T02:27:54.189Z,0.00
2022-10-11T02:28:54.220Z,0.00
2022-10-11T02:29:54.178Z,0.00
2022-10-11T02:30:56.935Z,0.00
2022-10-11T02:31:54.138Z,0.00
2022-10-11T02:32:55.161Z,0.00
2022-10-11T02:33:55.129Z,0.00
2022-10-11T02:34:55.117Z,0.00
2022-10-11T02:35:54.083Z,0.00
2022-10-11T02:36:53.855Z,0.00
2022-10-11T02:37:54.088Z,0.00
2022-10-11T02:38:53.820Z,0.00
2022-10-11T02:39:53.839Z,0.00
2022-10-11T02:40:53.794Z,0.00
2022-10-11T02:41:54.020Z,0.00
2022-10-11T02:42:53.798Z,0.00
2022-10-11T02:44:01.162Z,0.00
2022-10-11T02:44:53.792Z,0.00
2022-10-11T02:45:56.795Z,0.00
2022-10-11T02:46:53.789Z,0.00
2022-10-11T02:47:54.744Z,0.00
2022-10-11T02:48:53.732Z,0.00
2022-10-11T02:49:53.722Z,0.00
2022-10-11T02:50:53.722Z,0.00
2022-10-11T02:51:53.715Z,0.00
2022-10-11T02:52:56.734Z,0.00
2022-10-11T02:54:08.942Z,0.00
2022-10-11T02:54:53.680Z,0.00
2022-10-11T02:55:53.888Z,0.00
2022-10-11T02:56:53.651Z,0.00
2022-10-11T02:57:53.893Z,0.00
2022-10-11T02:58:53.619Z,0.00
2022-10-11T03:00:00.900Z,0.00
2022-10-11T03:00:53.606Z,0.00
2022-10-11T03:01:53.707Z,0.00
2022-10-11T03:02:54.609Z,0.00
2022-10-11T03:03:56.866Z,0.00
2022-10-11T03:04:53.556Z,0.00
2022-10-11T03:05:54.792Z,0.00
2022-10-11T03:06:53.778Z,0.00
2022-10-11T03:07:56.566Z,0.00
2022-10-11T03:08:54.549Z,0.00
2022-10-11T03:10:08.903Z,0.00
2022-10-11T03:10:54.533Z,0.00
2022-10-11T03:11:53.505Z,0.00
2022-10-11T03:12:53.519Z,0.00
2022-10-11T03:13:54.490Z,0.00
2022-10-11T03:14:56.705Z,0.00
2022-10-11T03:16:02.810Z,0.00
2022-10-11T03:16:54.680Z,0.00
2022-10-11T03:17:53.443Z,0.00
2022-10-11T03:19:09.036Z,0.00
2022-10-11T03:19:53.649Z,0.00
2022-10-11T03:20:53.625Z,0.00
2022-10-11T03:21:56.649Z,0.00
2022-10-11T03:22:54.637Z,0.00
2022-10-11T03:23:53.391Z,0.00
2022-10-11T03:24:53.360Z,0.00
2022-10-11T03:25:54.586Z,0.00
2022-10-11T03:26:53.348Z,0.00
2022-10-11T03:27:53.573Z,0.00
2022-10-11T03:28:53.600Z,0.00
2022-10-11T03:29:53.577Z,0.00
2022-10-11T03:31:14.277Z,0.00
2022-10-11T03:31:53.524Z,0.00
2022-10-11T03:32:53.504Z,0.00
2022-10-11T03:33:53.268Z,0.00
2022-10-11T03:34:53.282Z,0.00
2022-10-11T03:35:53.278Z,0.00
2022-10-11T03:36:53.228Z,0.00
2022-10-11T03:37:53.458Z,0.00
2022-10-11T03:38:54.455Z,0.00
2022-10-11T03:39:53.242Z,0.00
2022-10-11T03:40:54.453Z,0.00
2022-10-11T03:41:53.450Z,0.00
2022-10-11T03:43:00.325Z,0.00
2022-10-11T03:43:54.181Z,0.00
2022-10-11T03:44:56.420Z,0.00
2022-10-11T03:45:53.397Z,0.00
2022-10-11T03:46:53.347Z,0.00
2022-10-11T03:47:53.360Z,0.00
2022-10-11T03:48:53.326Z,0.00
2022-10-11T03:50:00.180Z,0.00
2022-10-11T03:50:53.348Z,0.00
2022-10-11T03:51:53.083Z,0.00
2022-10-11T03:52:53.095Z,0.00
2022-10-11T03:53:53.071Z,0.00
2022-10-11T03:55:00.183Z,0.00
2022-10-11T03:55:53.290Z,0.00
2022-10-11T03:56:53.066Z,0.00
2022-10-11T03:57:56.041Z,0.00
2022-10-11T03:58:54.249Z,0.00
2022-10-11T03:59:56.049Z,0.00
2022-10-11T04:00:53.001Z,0.00
2022-10-11T04:01:54.295Z,0.00
2022-10-11T04:02:52.986Z,0.00
2022-10-11T04:03:53.212Z,0.00
2022-10-11T04:04:55.989Z,0.00
2022-10-11T04:05:55.949Z,0.00
2022-10-11T04:06:53.192Z,0.00
2022-10-11T04:07:53.959Z,0.00
2022-10-11T04:08:52.896Z,0.00
2022-10-11T04:09:53.143Z,0.00
2022-10-11T04:10:53.899Z,0.00
2022-10-11T04:11:52.901Z,0.00
2022-10-11T04:12:53.085Z,0.00
2022-10-11T04:13:52.860Z,0.00
2022-10-11T04:14:52.860Z,0.00
2022-10-11T04:15:54.094Z,0.00
2022-10-11T04:16:56.372Z,0.00
2022-10-11T04:17:53.079Z,0.00
2022-10-11T04:18:54.053Z,0.00
2022-10-11T04:19:54.054Z,0.00
2022-10-11T04:20:52.775Z,0.00
2022-10-11T04:21:52.775Z,0.00
2022-10-11T04:22:52.792Z,0.00
2022-10-11T04:23:52.751Z,0.00
2022-10-11T04:24:53.993Z,0.00
2022-10-11T04:25:53.762Z,0.00
2022-10-11T04:26:52.942Z,0.00
2022-10-11T04:27:52.944Z,0.00
2022-10-11T04:28:53.011Z,0.00
2022-10-11T04:29:52.696Z,0.00
2022-10-11T04:30:53.676Z,0.00
2022-10-11T04:31:52.669Z,0.00
2022-10-11T04:32:52.884Z,0.00
2022-10-11T04:33:52.675Z,0.00
2022-10-11T04:34:53.652Z,0.00
2022-10-11T04:35:55.655Z,0.00
2022-10-11T04:36:52.845Z,0.00
2022-10-11T04:38:08.219Z,0.00
2022-10-11T04:38:52.867Z,0.00
2022-10-11T04:39:52.820Z,0.00
2022-10-11T04:40:52.600Z,0.00
2022-10-11T04:41:53.584Z,0.00
2022-10-11T04:42:52.571Z,0.00
2022-10-11T04:43:52.567Z,0.00
2022-10-11T04:44:55.561Z,0.00
2022-10-11T04:45:55.525Z,0.00
2022-10-11T04:46:55.544Z,0.00
2022-10-11T04:47:52.500Z,0.00
2022-10-11T04:48:55.527Z,0.00
2022-10-11T04:49:52.741Z,0.00
2022-10-11T04:50:52.500Z,0.00
2022-10-11T04:51:52.473Z,0.00
2022-10-11T04:52:52.464Z,0.00
2022-10-11T04:53:53.454Z,0.00
2022-10-11T04:54:52.443Z,0.00
2022-10-11T04:55:52.439Z,0.00
2022-10-11T04:56:52.407Z,0.00
2022-10-11T04:57:52.400Z,0.00
2022-10-11T04:58:59.812Z,0.00
2022-10-11T04:59:52.420Z,0.00
2022-10-11T05:00:52.379Z,0.00
2022-10-11T05:01:52.618Z,0.00
2022-10-11T05:02:52.335Z,0.00
2022-10-11T05:03:52.354Z,0.00
2022-10-11T05:04:59.523Z,0.00
2022-10-11T05:05:52.578Z,0.00
2022-10-11T05:06:52.522Z,0.00
2022-10-11T05:07:52.546Z,0.00
2022-10-11T05:08:52.318Z,0.00
2022-10-11T05:09:53.279Z,0.00
2022-10-11T05:10:52.291Z,0.00
2022-10-11T05:11:53.268Z,0.00
2022-10-11T05:12:52.261Z,0.00
2022-10-11T05:13:59.418Z,0.00
2022-10-11T05:14:53.472Z,0.00
2022-10-11T05:15:52.220Z,0.00
2022-10-11T05:16:52.245Z,0.00
2022-10-11T05:17:52.212Z,0.00
2022-10-11T05:18:53.232Z,0.00
2022-10-11T05:19:52.361Z,0.00
2022-10-11T05:20:52.397Z,0.00
2022-10-11T05:21:52.419Z,0.00
2022-10-11T05:22:52.386Z,0.00
2022-10-11T05:23:52.365Z,0.00
2022-10-11T05:24:55.405Z,0.00
2022-10-11T05:25:52.365Z,0.00
2022-10-11T05:26:52.104Z,0.00
2022-10-11T05:27:53.122Z,0.00
2022-10-11T05:28:53.186Z,0.00
2022-10-11T05:29:53.333Z,0.00
2022-10-11T05:30:52.071Z,0.00
2022-10-11T05:31:52.063Z,0.00
2022-10-11T05:32:52.061Z,0.00
2022-10-11T05:33:53.090Z,0.00
2022-10-11T05:34:52.028Z,0.00
2022-10-11T05:35:52.245Z,0.00
2022-10-11T05:36:52.035Z,0.00
2022-10-11T05:37:51.986Z,0.00
2022-10-11T05:38:51.988Z,0.00
2022-10-11T05:39:55.014Z,0.00
2022-10-11T05:40:52.188Z,0.00
2022-10-11T05:41:52.217Z,0.00
2022-10-11T05:42:53.195Z,0.00
2022-10-11T05:43:51.914Z,0.00
2022-10-11T05:44:51.952Z,0.00
2022-10-11T05:45:51.925Z,0.00
2022-10-11T05:46:51.910Z,0.00
2022-10-11T05:47:51.913Z,5.62
2022-10-11T05:48:55.136Z,5.62
2022-10-11T05:49:52.873Z,5.62
2022-10-11T05:50:52.884Z,5.62
2022-10-11T05:52:07.512Z,5.62
2022-10-11T05:52:58.974Z,5.62
2022-10-11T05:53:51.872Z,5.62
2022-10-11T05:54:52.053Z,5.62
2022-10-11T05:55:51.832Z,5.62
2022-10-11T05:56:52.049Z,5.62
2022-10-11T05:57:52.045Z,5.62
2022-10-11T05:58:51.804Z,5.62
2022-10-11T05:59:52.784Z,5.62
2022-10-11T06:00:55.093Z,5.62
2022-10-11T06:01:52.016Z,5.62
2022-10-11T06:02:51.989Z,11.25
2022-10-11T06:03:51.987Z,11.25
2022-10-11T06:04:52.979Z,11.25
2022-10-11T06:06:07.625Z,11.25
2022-10-11T06:06:51.703Z,11.25
2022-10-11T06:07:51.682Z,11.25
2022-10-11T06:08:51.680Z,11.25
2022-10-11T06:09:52.679Z,11.25
2022-10-11T06:10:54.667Z,11.25
2022-10-11T06:11:54.918Z,16.88
2022-10-11T06:12:51.618Z,16.88
2022-10-11T06:13:51.640Z,16.88
2022-10-11T06:14:52.861Z,22.50
2022-10-11T06:15:58.801Z,28.12
2022-10-11T06:16:54.860Z,22.50
2022-10-11T06:17:51.582Z,22.50
2022-10-11T06:18:51.592Z,22.50
2022-10-11T06:19:51.792Z,16.88
2022-10-11T06:20:51.785Z,16.88
2022-10-11T06:21:51.553Z,16.88
2022-10-11T06:23:07.002Z,16.88
2022-10-11T06:23:52.939Z,16.88
2022-10-11T06:24:54.557Z,16.88
2022-10-11T06:25:51.493Z,16.88
2022-10-11T06:26:51.493Z,16.88
2022-10-11T06:27:51.487Z,16.88
2022-10-11T06:28:51.738Z,16.88
2022-10-11T06:29:51.476Z,16.88
2022-10-11T06:30:54.488Z,16.88
2022-10-11T06:31:52.700Z,22.50
2022-10-11T06:32:52.446Z,22.50
2022-10-11T06:33:58.853Z,22.50
2022-10-11T06:34:51.421Z,22.50
2022-10-11T06:35:51.636Z,22.50
2022-10-11T06:36:51.396Z,22.50
2022-10-11T06:37:54.659Z,22.50
2022-10-11T06:38:51.364Z,22.50
2022-10-11T06:39:51.367Z,22.50
2022-10-11T06:40:51.377Z,22.50
2022-10-11T06:41:54.399Z,22.50
2022-10-11T06:42:52.586Z,22.50
2022-10-11T06:43:51.326Z,22.50
2022-10-11T06:44:51.296Z,22.50
2022-10-11T06:45:51.311Z,28.12
2022-10-11T06:46:51.548Z,28.12
2022-10-11T06:47:52.306Z,28.12
2022-10-11T06:48:52.483Z,28.12
2022-10-11T06:49:52.531Z,28.12
2022-10-11T06:51:00.273Z,28.12
2022-10-11T06:51:52.459Z,28.12
2022-10-11T06:52:51.468Z,28.12
2022-10-11T06:53:51.217Z,28.12
2022-10-11T06:54:52.225Z,28.12
2022-10-11T06:55:51.484Z,28.12
2022-10-11T06:56:51.407Z,28.12
2022-10-11T06:57:51.171Z,28.12
2022-10-11T06:58:52.196Z,28.12
2022-10-11T06:59:52.173Z,28.12
2022-10-11T07:00:54.207Z,28.12
2022-10-11T07:01:51.142Z,28.12
2022-10-11T07:02:51.383Z,28.12
2022-10-11T07:03:58.343Z,28.12
2022-10-11T07:04:51.336Z,28.12
2022-10-11T07:05:51.330Z,28.12
2022-10-11T07:06:52.368Z,28.12
2022-10-11T07:07:51.107Z,28.12
2022-10-11T07:08:51.303Z,28.12
2022-10-11T07:09:51.275Z,28.12
2022-10-11T07:10:51.278Z,28.12
2022-10-11T07:11:51.036Z,33.75
2022-10-11T07:12:51.252Z,33.75
2022-10-11T07:13:51.249Z,33.75
2022-10-11T07:14:51.014Z,33.75
2022-10-11T07:15:51.271Z,33.75
2022-10-11T07:16:51.002Z,33.75
2022-10-11T07:17:51.236Z,33.75
2022-10-11T07:18:52.286Z,33.75
2022-10-11T07:19:50.983Z,33.75
2022-10-11T07:20:51.952Z,33.75
2022-10-11T07:21:50.925Z,33.75
2022-10-11T07:22:51.173Z,33.75
2022-10-11T07:23:51.924Z,33.75
2022-10-11T07:25:06.521Z,33.75
2022-10-11T07:26:06.467Z,33.75
2022-10-11T07:26:51.112Z,33.75
2022-10-11T07:27:50.884Z,33.75
2022-10-11T07:28:51.960Z,33.75
2022-10-11T07:29:50.854Z,33.75
2022-10-11T07:30:53.861Z,33.75
2022-10-11T07:31:50.835Z,33.75
2022-10-11T07:32:50.827Z,33.75
2022-10-11T07:33:50.820Z,33.75
2022-10-11T07:34:52.059Z,39.38
2022-10-11T07:35:50.784Z,33.75
2022-10-11T07:36:51.012Z,39.38
2022-10-11T07:37:54.040Z,39.38
2022-10-11T07:38:50.793Z,39.38
2022-10-11T07:39:50.732Z,39.38
2022-10-11T07:40:50.739Z,39.38
2022-10-11T07:41:50.724Z,39.38
2022-10-11T07:42:50.729Z,39.38
2022-10-11T07:43:50.744Z,39.38
2022-10-11T07:44:50.721Z,39.38
2022-10-11T07:45:50.684Z,39.38
2022-10-11T07:46:50.686Z,39.38
2022-10-11T07:47:50.726Z,39.38
2022-10-11T07:48:50.900Z,39.38
2022-10-11T07:49:50.686Z,39.38
2022-10-11T07:50:50.873Z,39.38
2022-10-11T07:51:53.880Z,39.38
2022-10-11T07:52:50.632Z,39.38
2022-10-11T07:53:50.832Z,39.38
2022-10-11T07:54:50.633Z,39.38
2022-10-11T07:55:50.593Z,39.38
2022-10-11T07:56:50.580Z,39.38
2022-10-11T07:57:50.555Z,45.00
2022-10-11T07:58:50.545Z,39.38
2022-10-11T07:59:50.594Z,39.38
2022-10-11T08:00:50.531Z,39.38
2022-10-11T08:01:50.588Z,39.38
2022-10-11T08:02:50.530Z,45.00
2022-10-11T08:03:50.504Z,45.00
2022-10-11T08:04:50.493Z,45.00
2022-10-11T08:05:50.479Z,45.00
2022-10-11T08:06:53.352Z,45.00
2022-10-11T08:07:50.473Z,39.38
2022-10-11T08:08:50.455Z,39.38
2022-10-11T08:09:50.486Z,39.38
2022-10-11T08:10:50.431Z,39.38
2022-10-11T08:11:50.421Z,39.38
2022-10-11T08:12:50.419Z,39.38
2022-10-11T08:13:50.465Z,39.38
2022-10-11T08:14:50.378Z,45.00
2022-10-11T08:15:50.426Z,45.00
2022-10-11T08:16:50.358Z,45.00
2022-10-11T08:17:50.343Z,50.62
2022-10-11T08:18:50.357Z,50.62
2022-10-11T08:19:50.327Z,50.62
2022-10-11T08:20:50.342Z,50.62
2022-10-11T08:21:50.311Z,50.62
2022-10-11T08:22:50.303Z,50.62
2022-10-11T08:23:50.279Z,50.62
2022-10-11T08:24:50.291Z,50.62
2022-10-11T08:25:50.284Z,50.62
2022-10-11T08:26:50.286Z,50.62
2022-10-11T08:27:50.244Z,50.62
2022-10-11T08:28:50.364Z,56.25
2022-10-11T08:29:50.239Z,56.25
2022-10-11T08:30:50.216Z,56.25
2022-10-11T08:31:50.238Z,56.25
2022-10-11T08:32:50.229Z,61.88
2022-10-11T08:33:50.204Z,56.25
2022-10-11T08:34:50.408Z,56.25
2022-10-11T08:35:50.187Z,56.25
2022-10-11T08:36:50.203Z,61.88
2022-10-11T08:37:50.159Z,61.88
2022-10-11T08:38:50.146Z,67.50
2022-10-11T08:39:50.132Z,61.88
2022-10-11T08:40:50.123Z,56.25
2022-10-11T08:41:50.132Z,56.25
2022-10-11T08:42:50.093Z,56.25
2022-10-11T08:43:50.077Z,50.62
2022-10-11T08:45:09.975Z,50.62
2022-10-11T08:45:51.082Z,50.62
2022-10-11T08:46:50.076Z,45.00
2022-10-11T08:47:50.027Z,50.62
2022-10-11T08:48:50.074Z,56.25
2022-10-11T08:49:50.047Z,61.88
2022-10-11T08:50:50.024Z,78.75
2022-10-11T08:51:50.065Z,84.38
2022-10-11T08:52:50.018Z,101.25
2022-10-11T08:53:49.994Z,101.25
2022-10-11T08:54:50.225Z,106.88
2022-10-11T08:55:50.199Z,95.62
2022-10-11T08:56:49.993Z,90.00
2022-10-11T08:57:53.011Z,90.00
2022-10-11T08:58:49.942Z,101.25
2022-10-11T08:59:49.928Z,112.50
2022-10-11T09:00:49.970Z,123.75
2022-10-11T09:01:49.964Z,129.38
2022-10-11T09:03:07.387Z,123.75
2022-10-11T09:03:50.898Z,112.50
2022-10-11T09:04:49.871Z,106.88
2022-10-11T09:05:49.853Z,101.25
2022-10-11T09:06:49.882Z,101.25
2022-10-11T09:07:49.853Z,95.62
2022-10-11T09:08:49.825Z,78.75
2022-10-11T09:09:49.812Z,67.50
2022-10-11T09:10:49.814Z,61.88
2022-10-11T09:11:49.818Z,56.25
2022-10-11T09:12:49.851Z,56.25
2022-10-11T09:13:49.768Z,56.25
2022-10-11T09:14:49.769Z,61.88
2022-10-11T09:15:49.754Z,61.88
2022-10-11T09:16:49.772Z,56.25
2022-10-11T09:17:49.752Z,61.88
2022-10-11T09:18:49.744Z,61.88
2022-10-11T09:19:49.713Z,61.88
2022-10-11T09:20:49.937Z,61.88
2022-10-11T09:21:49.749Z,61.88
2022-10-11T09:22:49.678Z,61.88
2022-10-11T09:23:49.694Z,61.88
2022-10-11T09:24:49.695Z,61.88
2022-10-11T09:25:49.647Z,61.88
2022-10-11T09:26:49.654Z,67.50
2022-10-11T09:28:02.284Z,67.50
2022-10-11T09:28:50.720Z,73.12
2022-10-11T09:29:49.608Z,73.12
2022-10-11T09:30:49.617Z,73.12
2022-10-11T09:31:49.596Z,78.75
2022-10-11T09:32:49.822Z,73.12
2022-10-11T09:33:49.573Z,73.12
2022-10-11T09:34:49.581Z,73.12
2022-10-11T09:35:49.574Z,73.12
2022-10-11T09:36:49.553Z,73.12
2022-10-11T09:37:49.537Z,73.12
2022-10-11T09:38:49.554Z,73.12
2022-10-11T09:39:49.510Z,67.50
2022-10-11T09:40:49.525Z,73.12
2022-10-11T09:41:49.489Z,73.12
2022-10-11T09:42:49.476Z,78.75
2022-10-11T09:43:49.505Z,78.75
2022-10-11T09:44:49.470Z,78.75
2022-10-11T09:45:49.838Z,78.75
2022-10-11T09:46:49.450Z,73.12
2022-10-11T09:47:49.416Z,73.12
2022-10-11T09:48:49.408Z,73.12
2022-10-11T09:49:49.464Z,73.12
2022-10-11T09:50:49.404Z,78.75
2022-10-11T09:51:49.391Z,78.75
2022-10-11T09:52:49.388Z,78.75
2022-10-11T09:53:52.408Z,84.38
2022-10-11T09:54:49.404Z,84.38
2022-10-11T09:55:49.581Z,90.00
2022-10-11T09:56:49.379Z,90.00
2022-10-11T09:57:49.564Z,90.00
2022-10-11T09:58:50.319Z,90.00
2022-10-11T09:59:49.317Z,84.38
2022-10-11T10:00:49.327Z,78.75
2022-10-11T10:01:49.350Z,78.75
2022-10-11T10:02:52.339Z,78.75
2022-10-11T10:03:49.281Z,73.12
2022-10-11T10:04:49.299Z,73.12
2022-10-11T10:05:52.280Z,73.12
2022-10-11T10:06:50.273Z,73.12
2022-10-11T10:07:49.447Z,73.12
2022-10-11T10:08:49.275Z,73.12
2022-10-11T10:09:49.230Z,73.12
2022-10-11T10:10:49.235Z,73.12
2022-10-11T10:11:49.195Z,73.12
2022-10-11T10:12:49.498Z,73.12
2022-10-11T10:13:49.401Z,67.50
2022-10-11T10:14:49.395Z,67.50
2022-10-11T10:15:49.401Z,67.50
2022-10-11T10:16:49.375Z,73.12
2022-10-11T10:17:49.353Z,67.50
2022-10-11T10:18:50.121Z,67.50
2022-10-11T10:19:49.306Z,67.50
2022-10-11T10:20:49.341Z,67.50
2022-10-11T10:21:50.096Z,67.50
2022-10-11T10:22:49.292Z,61.88
2022-10-11T10:23:52.116Z,61.88
2022-10-11T10:24:49.109Z,67.50
2022-10-11T10:25:49.293Z,67.50
2022-10-11T10:26:49.045Z,67.50
2022-10-11T10:27:49.032Z,67.50
2022-10-11T10:28:49.099Z,61.88
2022-10-11T10:29:52.057Z,61.88
2022-10-11T10:30:49.261Z,67.50
2022-10-11T10:32:12.832Z,67.50
2022-10-11T10:32:50.203Z,67.50
2022-10-11T10:33:49.217Z,67.50
2022-10-11T10:34:48.943Z,67.50
2022-10-11T10:35:49.179Z,73.12
2022-10-11T10:36:51.985Z,78.75
2022-10-11T10:37:50.164Z,78.75
2022-10-11T10:38:52.129Z,78.75
2022-10-11T10:39:48.924Z,78.75
2022-10-11T10:40:48.924Z,78.75
2022-10-11T10:41:48.876Z,78.75
2022-10-11T10:42:48.901Z,84.38
2022-10-11T10:43:48.885Z,84.38
2022-10-11T10:44:48.844Z,90.00
2022-10-11T10:45:48.870Z,90.00
2022-10-11T10:46:56.122Z,90.00
2022-10-11T10:47:51.854Z,90.00
2022-10-11T10:49:23.601Z,90.00
2022-10-11T10:49:54.094Z,90.00
2022-10-11T10:50:50.099Z,84.38
2022-10-11T10:51:48.784Z,84.38
2022-10-11T10:52:48.779Z,84.38
2022-10-11T10:53:48.764Z,78.75
2022-10-11T10:54:48.747Z,78.75
2022-10-11T10:55:48.726Z,84.38
2022-10-11T10:56:48.725Z,84.38
2022-10-11T10:57:49.746Z,84.38
2022-10-11T10:58:48.721Z,84.38
2022-10-11T10:59:48.914Z,84.38
2022-10-11T11:00:48.690Z,84.38
2022-10-11T11:01:48.783Z,84.38
2022-10-11T11:02:48.730Z,84.38
2022-10-11T11:03:49.760Z,84.38
2022-10-11T11:04:48.693Z,84.38
2022-10-11T11:05:48.617Z,84.38
2022-10-11T11:06:48.630Z,84.38
2022-10-11T11:07:48.633Z,78.75
2022-10-11T11:08:48.611Z,78.75
2022-10-11T11:09:48.592Z,73.12
2022-10-11T11:10:48.587Z,78.75
2022-10-11T11:11:48.574Z,78.75
2022-10-11T11:12:48.588Z,78.75
2022-10-11T11:13:48.554Z,73.12
2022-10-11T11:14:49.552Z,73.12
2022-10-11T11:15:48.552Z,73.12
2022-10-11T11:16:48.520Z,73.12
2022-10-11T11:17:48.529Z,73.12
2022-10-11T11:18:48.517Z,67.50
2022-10-11T11:19:51.498Z,67.50
2022-10-11T11:20:48.496Z,67.50
2022-10-11T11:21:48.470Z,73.12
2022-10-11T11:22:48.473Z,73.12
2022-10-11T11:23:48.486Z,73.12
2022-10-11T11:24:48.651Z,73.12
2022-10-11T11:25:48.445Z,73.12
2022-10-11T11:26:48.419Z,73.12
2022-10-11T11:27:48.646Z,73.12
2022-10-11T11:28:48.438Z,73.12
2022-10-11T11:29:53.120Z,73.12
2022-10-11T11:30:49.418Z,73.12
2022-10-11T11:31:48.385Z,73.12
2022-10-11T11:32:48.379Z,73.12
2022-10-11T11:33:49.053Z,73.12
2022-10-11T11:34:48.332Z,78.75
2022-10-11T11:35:48.326Z,78.75
2022-10-11T11:36:48.312Z,78.75
2022-10-11T11:37:57.941Z,78.75
2022-10-11T11:38:49.632Z,78.75
2022-10-11T11:39:48.275Z,78.75
2022-10-11T11:40:48.272Z,78.75
2022-10-11T11:41:48.253Z,78.75
2022-10-11T11:42:48.279Z,73.12
2022-10-11T11:43:48.252Z,73.12
2022-10-11T11:44:49.478Z,78.75
2022-10-11T11:45:48.220Z,78.75
2022-10-11T11:46:48.215Z,78.75
2022-10-11T11:47:48.208Z,73.12
2022-10-11T11:48:49.205Z,73.12
2022-10-11T11:49:48.202Z,78.75
2022-10-11T11:50:48.169Z,73.12
2022-10-11T11:51:48.184Z,73.12
2022-10-11T11:52:49.166Z,73.12
2022-10-11T11:53:48.154Z,73.12
2022-10-11T11:54:49.141Z,78.75
2022-10-11T11:55:49.147Z,78.75
2022-10-11T11:56:48.136Z,78.75
2022-10-11T11:57:48.120Z,78.75
2022-10-11T11:58:48.142Z,90.00
2022-10-11T11:59:48.126Z,95.62
2022-10-11T12:00:48.056Z,101.25
2022-10-11T12:01:48.107Z,95.62
2022-10-11T12:02:48.064Z,84.38
2022-10-11T12:03:48.047Z,78.75
2022-10-11T12:04:48.035Z,78.75
2022-10-11T12:05:48.047Z,84.38
2022-10-11T12:07:14.527Z,84.38
2022-10-11T12:07:49.000Z,78.75
2022-10-11T12:08:48.000Z,78.75
2022-10-11T12:09:47.997Z,78.75
2022-10-11T12:10:47.979Z,78.75
2022-10-11T12:11:47.959Z,67.50
2022-10-11T12:12:47.970Z,67.50
2022-10-11T12:13:47.945Z,73.12
2022-10-11T12:14:47.960Z,73.12
2022-10-11T12:15:47.928Z,73.12
2022-10-11T12:16:47.910Z,73.12
2022-10-11T12:17:47.978Z,67.50
2022-10-11T12:18:47.895Z,67.50
2022-10-11T12:19:47.915Z,67.50
2022-10-11T12:20:47.885Z,67.50
2022-10-11T12:21:47.849Z,67.50
2022-10-11T12:22:47.849Z,67.50
2022-10-11T12:23:47.846Z,73.12
2022-10-11T12:24:47.844Z,73.12
2022-10-11T12:25:47.842Z,78.75
2022-10-11T12:26:47.823Z,84.38
2022-10-11T12:27:47.795Z,84.38
2022-10-11T12:28:47.828Z,78.75
2022-10-11T12:29:47.783Z,78.75
2022-10-11T12:30:47.753Z,78.75
2022-10-11T12:31:47.788Z,73.12
2022-10-11T12:32:47.735Z,73.12
2022-10-11T12:33:47.729Z,73.12
2022-10-11T12:34:47.731Z,73.12
2022-10-11T12:35:47.700Z,73.12
2022-10-11T12:36:47.692Z,73.12
2022-10-11T12:37:47.727Z,73.12
2022-10-11T12:38:47.660Z,78.75
2022-10-11T12:39:47.691Z,84.38
2022-10-11T12:40:47.659Z,101.25
2022-10-11T12:41:50.677Z,118.12
2022-10-11T12:42:47.664Z,106.88
2022-10-11T12:43:47.629Z,112.50
2022-10-11T12:44:47.628Z,112.50
2022-10-11T12:45:47.624Z,90.00
2022-10-11T12:46:47.827Z,90.00
2022-10-11T12:47:47.621Z,95.62
2022-10-11T12:48:47.823Z,78.75
2022-10-11T12:49:47.806Z,67.50
2022-10-11T12:50:47.552Z,61.88
2022-10-11T12:51:47.605Z,61.88
2022-10-11T12:52:47.543Z,61.88
2022-10-11T12:53:57.703Z,61.88
2022-10-11T12:54:48.520Z,61.88
2022-10-11T12:55:47.737Z,61.88
2022-10-11T12:56:47.725Z,61.88
2022-10-11T12:57:47.498Z,61.88
2022-10-11T12:58:47.483Z,61.88
2022-10-11T12:59:47.493Z,61.88
2022-10-11T13:00:47.693Z,56.25
2022-10-11T13:01:47.502Z,61.88
2022-10-11T13:02:47.410Z,61.88
2022-10-11T13:03:47.675Z,61.88